createdAt,value
2022-10-18T00:02:10.418Z,16.76
2022-10-18T00:04:40.154Z,16.73
2022-10-18T00:07:08.359Z,16.71
2022-10-18T00:09:36.570Z,16.68
2022-10-18T00:12:05.638Z,16.68
2022-10-18T00:14:33.937Z,16.60
2022-10-18T00:17:02.832Z,16.68
2022-10-18T00:19:31.285Z,16.65
2022-10-18T00:22:01.204Z,16.62
2022-10-18T00:24:29.679Z,16.67
2022-10-18T00:26:57.851Z,16.68
2022-10-18T00:29:26.168Z,16.72
2022-10-18T00:31:54.636Z,16.65
2022-10-18T00:34:23.138Z,16.73
2022-10-18T00:36:51.612Z,16.73
2022-10-18T00:39:23.027Z,16.67
2022-10-18T00:41:52.047Z,16.55
2022-10-18T00:44:57.648Z,16.54
2022-10-18T00:47:26.295Z,16.51
2022-10-18T00:49:59.411Z,16.39
2022-10-18T00:52:30.726Z,16.46
2022-10-18T00:55:00.975Z,16.44
2022-10-18T00:57:30.293Z,16.50
2022-10-18T00:59:58.801Z,16.49
2022-10-18T01:02:27.676Z,16.45
2022-10-18T01:04:56.061Z,16.39
2022-10-18T01:07:54.398Z,16.34
2022-10-18T01:10:32.388Z,16.30
2022-10-18T01:13:16.169Z,16.26
2022-10-18T01:15:53.123Z,16.15
2022-10-18T01:18:26.805Z,16.17
2022-10-18T01:21:12.611Z,16.13
2022-10-18T01:23:56.637Z,16.08
2022-10-18T01:26:42.046Z,16.02
2022-10-18T01:29:21.691Z,15.84
2022-10-18T01:31:59.647Z,15.90
2022-10-18T01:34:33.732Z,15.86
2022-10-18T01:37:07.535Z,15.76
2022-10-18T01:39:39.201Z,15.78
2022-10-18T01:42:12.550Z,15.85
2022-10-18T01:44:43.172Z,15.86
2022-10-18T01:47:15.160Z,15.83
2022-10-18T01:49:43.614Z,15.77
2022-10-18T01:52:14.437Z,15.76
2022-10-18T01:54:45.747Z,15.75
2022-10-18T01:57:20.234Z,15.76
2022-10-18T01:59:56.388Z,15.67
2022-10-18T02:02:39.092Z,15.64
2022-10-18T02:05:16.043Z,15.63
2022-10-18T02:08:00.102Z,15.66
2022-10-18T02:10:42.663Z,15.58
2022-10-18T02:13:14.107Z,15.47
2022-10-18T02:15:46.734Z,15.47
2022-10-18T02:18:20.229Z,15.44
2022-10-18T02:20:50.253Z,15.28
2022-10-18T02:23:24.394Z,15.38
2022-10-18T02:25:54.031Z,15.31
2022-10-18T02:30:59.422Z,15.32
2022-10-18T02:33:35.408Z,15.33
2022-10-18T02:36:08.627Z,15.36
2022-10-18T02:38:37.866Z,15.38
2022-10-18T02:41:06.326Z,15.33
2022-10-18T02:43:35.485Z,15.37
2022-10-18T02:46:04.470Z,15.37
2022-10-18T02:48:34.408Z,15.41
2022-10-18T02:51:02.649Z,15.39
2022-10-18T02:53:30.871Z,15.32
2022-10-18T02:55:59.098Z,15.29
2022-10-18T02:58:27.621Z,15.32
2022-10-18T03:00:56.117Z,15.28
2022-10-18T03:03:24.567Z,15.24
2022-10-18T03:05:54.693Z,15.20
2022-10-18T03:08:24.406Z,15.24
2022-10-18T03:10:53.397Z,15.21
2022-10-18T03:13:22.224Z,15.30
2022-10-18T03:15:50.684Z,15.32
2022-10-18T03:18:18.833Z,15.36
2022-10-18T03:20:47.298Z,15.33
2022-10-18T03:23:16.911Z,15.28
2022-10-18T03:25:46.503Z,15.37
2022-10-18T03:28:16.364Z,15.34
2022-10-18T03:30:44.949Z,15.30
2022-10-18T03:33:14.591Z,15.32
2022-10-18T03:35:43.107Z,15.33
2022-10-18T03:38:11.547Z,15.24
2022-10-18T03:40:41.488Z,15.17
2022-10-18T03:43:09.977Z,14.98
2022-10-18T03:45:38.216Z,15.07
2022-10-18T03:48:08.082Z,14.97
2022-10-18T03:50:36.605Z,14.92
2022-10-18T03:53:05.103Z,14.97
2022-10-18T03:55:33.368Z,15.03
2022-10-18T03:58:03.002Z,14.99
2022-10-18T04:00:31.598Z,15.05
2022-10-18T04:03:00.006Z,14.94
2022-10-18T04:05:30.821Z,15.07
2022-10-18T04:07:59.199Z,15.11
2022-10-18T04:10:27.417Z,15.20
2022-10-18T04:12:56.014Z,15.23
2022-10-18T04:15:25.633Z,15.23
2022-10-18T04:17:54.187Z,15.26
2022-10-18T04:20:22.357Z,15.23
2022-10-18T04:22:50.907Z,15.19
2022-10-18T04:25:19.624Z,15.19
2022-10-18T04:27:47.916Z,15.18
2022-10-18T04:30:16.554Z,15.18
2022-10-18T04:32:46.281Z,15.20
2022-10-18T04:35:14.799Z,15.20
2022-10-18T04:37:43.074Z,15.14
2022-10-18T04:40:12.468Z,15.06
2022-10-18T04:42:41.703Z,15.00
2022-10-18T04:45:10.686Z,14.91
2022-10-18T04:47:38.909Z,14.96
2022-10-18T04:50:09.644Z,15.02
2022-10-18T04:52:38.182Z,14.99
2022-10-18T04:55:07.112Z,15.06
2022-10-18T04:57:35.443Z,15.03
2022-10-18T05:00:03.823Z,15.07
2022-10-18T05:02:32.527Z,15.07
2022-10-18T05:05:01.427Z,15.07
2022-10-18T05:07:31.088Z,15.05
2022-10-18T05:09:59.566Z,15.02
2022-10-18T05:12:27.820Z,14.99
2022-10-18T05:14:56.825Z,14.96
2022-10-18T05:17:25.016Z,14.99
2022-10-18T05:19:53.960Z,14.98
2022-10-18T05:22:22.098Z,14.92
2022-10-18T05:24:52.235Z,14.96
2022-10-18T05:27:21.857Z,15.02
2022-10-18T05:29:50.167Z,15.00
2022-10-18T05:32:18.484Z,15.07
2022-10-18T05:34:46.563Z,15.05
2022-10-18T05:37:14.711Z,15.04
2022-10-18T05:39:42.932Z,15.03
2022-10-18T05:42:13.510Z,15.07
2022-10-18T05:44:41.738Z,15.08
2022-10-18T05:47:09.829Z,15.00
2022-10-18T05:49:38.129Z,15.10
2022-10-18T05:52:07.218Z,15.10
2022-10-18T05:54:35.301Z,15.09
2022-10-18T05:57:03.396Z,15.09
2022-10-18T05:59:32.827Z,15.11
2022-10-18T06:02:00.984Z,15.08
2022-10-18T06:04:29.131Z,15.05
2022-10-18T06:06:57.255Z,15.14
2022-10-18T06:09:26.064Z,15.11
2022-10-18T06:11:54.526Z,15.16
2022-10-18T06:14:22.580Z,15.11
2022-10-18T06:16:52.158Z,15.08
2022-10-18T06:19:21.419Z,15.10
2022-10-18T06:21:49.664Z,15.15
2022-10-18T06:24:18.556Z,15.17
2022-10-18T06:26:46.797Z,15.15
2022-10-18T06:29:15.535Z,15.16
2022-10-18T06:31:43.683Z,15.10
2022-10-18T06:34:13.377Z,15.12
2022-10-18T06:36:41.517Z,15.10
2022-10-18T06:39:09.998Z,15.09
2022-10-18T06:41:38.720Z,15.08
2022-10-18T06:44:20.154Z,15.00
2022-10-18T06:46:49.950Z,15.05
2022-10-18T06:49:19.610Z,15.10
2022-10-18T06:51:48.274Z,15.06
2022-10-18T06:54:18.753Z,15.20
2022-10-18T06:56:47.227Z,15.15
2022-10-18T06:59:18.229Z,15.21
2022-10-18T07:01:47.565Z,15.20
2022-10-18T07:04:15.868Z,15.17
2022-10-18T07:06:46.089Z,15.29
2022-10-18T07:09:14.442Z,15.35
2022-10-18T07:11:42.650Z,15.41
2022-10-18T07:14:15.382Z,15.52
2022-10-18T07:16:44.991Z,15.65
2022-10-18T07:19:16.361Z,15.95
2022-10-18T07:21:47.346Z,16.37
2022-10-18T07:24:15.827Z,16.53
2022-10-18T07:26:44.083Z,16.70
2022-10-18T07:29:14.458Z,16.92
2022-10-18T07:31:42.705Z,17.00
2022-10-18T07:34:13.900Z,16.82
2022-10-18T07:36:42.623Z,16.67
2022-10-18T07:39:12.546Z,16.65
2022-10-18T07:41:41.247Z,16.54
2022-10-18T07:44:09.922Z,16.50
2022-10-18T07:46:38.432Z,16.49
2022-10-18T07:49:07.199Z,16.49
2022-10-18T07:51:36.375Z,16.46
2022-10-18T07:54:05.082Z,16.67
2022-10-18T07:56:35.003Z,17.02
2022-10-18T07:59:03.416Z,17.04
2022-10-18T08:01:31.712Z,17.02
2022-10-18T08:04:06.178Z,17.07
2022-10-18T08:06:36.515Z,17.09
2022-10-18T08:09:05.516Z,17.20
2022-10-18T08:11:36.226Z,17.20
2022-10-18T08:14:05.177Z,17.27
2022-10-18T08:16:33.586Z,17.13
2022-10-18T08:19:02.034Z,17.29
2022-10-18T08:21:31.658Z,17.55
2022-10-18T08:24:00.232Z,17.60
2022-10-18T08:26:28.694Z,17.73
2022-10-18T08:29:17.781Z,17.51
2022-10-18T08:31:46.582Z,17.52
2022-10-18T08:34:24.628Z,17.75
2022-10-18T08:36:52.800Z,17.94
2022-10-18T08:39:21.726Z,18.17
2022-10-18T08:42:20.107Z,18.42
2022-10-18T08:44:51.936Z,18.80
2022-10-18T08:47:23.288Z,18.58
2022-10-18T08:49:55.413Z,18.91
2022-10-18T08:52:33.574Z,19.45
2022-10-18T08:55:04.769Z,19.85
2022-10-18T08:57:34.049Z,20.39
2022-10-18T09:00:16.368Z,20.55
2022-10-18T09:03:06.610Z,20.15
2022-10-18T09:05:46.443Z,19.96
2022-10-18T09:08:33.647Z,19.82
2022-10-18T09:11:19.387Z,19.79
2022-10-18T09:14:11.329Z,19.71
2022-10-18T09:16:51.533Z,19.41
2022-10-18T09:19:32.787Z,19.34
2022-10-18T09:22:09.882Z,19.18
2022-10-18T09:24:42.345Z,18.73
2022-10-18T09:27:17.614Z,18.72
2022-10-18T09:29:59.804Z,18.72
2022-10-18T09:32:43.912Z,18.82
2022-10-18T09:35:18.861Z,18.93
2022-10-18T09:37:49.084Z,19.34
2022-10-18T09:40:21.064Z,19.56
2022-10-18T09:42:56.034Z,19.64
2022-10-18T09:45:29.032Z,19.64
2022-10-18T09:48:06.985Z,19.88
2022-10-18T09:50:39.782Z,19.80
2022-10-18T09:53:17.073Z,19.67
2022-10-18T09:55:57.646Z,19.46
2022-10-18T09:58:30.907Z,19.56
2022-10-18T10:01:00.023Z,19.36
2022-10-18T10:03:29.853Z,19.34
2022-10-18T10:06:16.092Z,19.16
2022-10-18T10:08:49.809Z,19.19
2022-10-18T10:11:33.970Z,19.19
2022-10-18T10:16:48.787Z,19.45
2022-10-18T10:19:26.202Z,19.45
2022-10-18T10:22:01.689Z,19.43
2022-10-18T10:24:44.359Z,19.39
2022-10-18T10:27:19.405Z,19.46
2022-10-18T10:30:00.387Z,19.66
2022-10-18T10:32:32.903Z,19.81
2022-10-18T10:35:02.592Z,19.86
2022-10-18T10:37:35.770Z,20.06
2022-10-18T10:40:21.203Z,20.08
2022-10-18T10:43:19.659Z,19.86
2022-10-18T10:46:08.968Z,19.85
2022-10-18T10:48:46.884Z,19.89
2022-10-18T10:51:18.449Z,20.05
2022-10-18T10:53:52.785Z,20.06
2022-10-18T10:56:26.832Z,19.98
2022-10-18T10:58:59.274Z,19.93
2022-10-18T11:01:33.293Z,20.03
2022-10-18T11:04:04.726Z,20.36
2022-10-18T11:06:55.626Z,20.67
2022-10-18T11:09:51.491Z,20.82
2022-10-18T11:12:28.164Z,21.03
2022-10-18T11:15:05.796Z,20.91
2022-10-18T11:17:41.524Z,20.87
2022-10-18T11:20:24.470Z,21.02
2022-10-18T11:23:01.234Z,21.30
2022-10-18T11:25:42.198Z,21.31
2022-10-18T11:28:18.263Z,21.15
2022-10-18T11:30:59.561Z,21.26
2022-10-18T11:36:36.574Z,21.54
2022-10-18T11:39:15.076Z,21.64
2022-10-18T11:41:51.281Z,21.61
2022-10-18T11:44:29.419Z,21.48
2022-10-18T11:47:09.722Z,21.42
2022-10-18T11:49:52.019Z,21.37
2022-10-18T11:52:25.022Z,21.18
2022-10-18T11:55:20.642Z,21.25
2022-10-18T11:57:59.015Z,21.45
2022-10-18T12:00:40.501Z,21.46
2022-10-18T12:03:21.332Z,21.49
2022-10-18T12:05:52.285Z,21.48
2022-10-18T12:08:24.672Z,21.67
2022-10-18T12:11:06.159Z,22.00
2022-10-18T12:13:40.432Z,22.09
2022-10-18T12:16:10.825Z,22.30
2022-10-18T12:21:25.481Z,22.20
2022-10-18T12:23:57.727Z,22.03
2022-10-18T12:26:29.369Z,21.79
2022-10-18T12:29:12.181Z,21.63
2022-10-18T12:31:44.744Z,21.65
2022-10-18T12:34:28.235Z,21.69
2022-10-18T12:37:34.178Z,21.80
2022-10-18T12:40:12.420Z,21.89
2022-10-18T12:42:46.567Z,21.95
2022-10-18T12:45:25.683Z,21.89
2022-10-18T12:47:54.626Z,21.89
2022-10-18T12:50:31.780Z,21.94
2022-10-18T12:53:14.624Z,21.99
2022-10-18T12:55:45.087Z,22.24
2022-10-18T12:58:32.694Z,22.52
2022-10-18T13:01:08.133Z,22.61
2022-10-18T13:04:00.636Z,22.59
2022-10-18T13:07:08.046Z,22.50
2022-10-18T13:09:39.673Z,22.51
2022-10-18T13:12:46.227Z,22.83
2022-10-18T13:15:34.337Z,22.74
2022-10-18T13:18:15.785Z,22.72
2022-10-18T13:20:49.760Z,22.53
2022-10-18T13:23:37.804Z,22.38
2022-10-18T13:26:17.467Z,22.57
2022-10-18T13:28:53.639Z,22.55
2022-10-18T13:31:27.909Z,22.50
2022-10-18T13:33:56.197Z,22.58
2022-10-18T13:36:26.435Z,22.74
2022-10-18T13:39:07.317Z,22.70
2022-10-18T13:42:09.009Z,22.77
2022-10-18T13:44:40.438Z,22.81
2022-10-18T13:47:14.054Z,22.75
2022-10-18T13:50:18.086Z,22.97
2022-10-18T13:53:18.322Z,23.24
2022-10-18T13:55:59.908Z,23.16
2022-10-18T13:58:48.905Z,23.04
2022-10-18T14:01:32.611Z,23.02
2022-10-18T14:04:28.095Z,22.88
2022-10-18T14:07:02.303Z,22.78
2022-10-18T14:09:44.522Z,22.85
2022-10-18T14:12:23.080Z,22.63
2022-10-18T14:14:58.138Z,22.64
2022-10-18T14:17:36.644Z,22.78
2022-10-18T14:20:18.218Z,22.80
2022-10-18T14:22:50.965Z,22.79
2022-10-18T14:25:28.008Z,22.50
2022-10-18T14:28:14.158Z,22.42
2022-10-18T14:30:57.764Z,22.27
2022-10-18T14:33:35.349Z,22.20
2022-10-18T14:36:11.578Z,22.17
2022-10-18T14:38:52.953Z,22.10
2022-10-18T14:41:23.846Z,22.20
2022-10-18T14:43:53.070Z,22.39
2022-10-18T14:46:27.235Z,22.59
2022-10-18T14:49:00.423Z,22.97
2022-10-18T14:51:31.450Z,22.99
2022-10-18T14:53:59.820Z,22.99
2022-10-18T14:56:30.953Z,23.01
2022-10-18T14:59:03.715Z,23.11
2022-10-18T15:01:36.405Z,23.22
2022-10-18T15:04:09.539Z,23.15
2022-10-18T15:06:37.941Z,23.18
2022-10-18T15:09:07.937Z,23.07
2022-10-18T15:11:36.386Z,23.20
2022-10-18T15:14:08.703Z,22.80
2022-10-18T15:16:39.535Z,22.68
2022-10-18T15:19:29.250Z,22.68
2022-10-18T15:25:16.786Z,22.56
2022-10-18T15:27:47.637Z,22.54
2022-10-18T15:30:20.892Z,22.37
2022-10-18T15:32:52.465Z,22.34
2022-10-18T15:35:26.497Z,22.31
2022-10-18T15:37:56.221Z,22.17
2022-10-18T15:40:34.482Z,22.11
2022-10-18T15:43:05.912Z,22.14
2022-10-18T15:45:37.643Z,22.10
2022-10-18T15:48:23.569Z,22.02
2022-10-18T15:50:54.595Z,21.86
2022-10-18T15:53:34.135Z,21.79
2022-10-18T15:56:06.499Z,21.74
2022-10-18T15:58:44.116Z,21.72
2022-10-18T16:01:17.764Z,21.75
2022-10-18T16:03:47.979Z,21.62
2022-10-18T16:06:19.016Z,21.69
2022-10-18T16:08:49.664Z,21.57
2022-10-18T16:11:19.634Z,21.50
2022-10-18T16:13:49.305Z,21.52
2022-10-18T16:16:20.122Z,21.42
2022-10-18T16:18:48.465Z,21.49
2022-10-18T16:21:23.681Z,21.47
2022-10-18T16:23:52.639Z,21.38
2022-10-18T16:26:22.379Z,21.32
2022-10-18T16:28:51.275Z,21.25
2022-10-18T16:31:21.850Z,21.14
2022-10-18T16:33:52.568Z,21.13
2022-10-18T16:36:24.077Z,21.12
2022-10-18T16:38:54.972Z,20.91
2022-10-18T16:41:23.946Z,20.91
2022-10-18T16:43:52.536Z,20.91
2022-10-18T16:46:22.763Z,20.81
2022-10-18T16:48:52.476Z,20.82
2022-10-18T16:51:23.121Z,20.86
2022-10-18T16:53:53.349Z,20.81
2022-10-18T16:56:23.731Z,20.74
2022-10-18T16:58:52.552Z,20.78
2022-10-18T17:01:24.959Z,20.76
2022-10-18T17:03:55.488Z,20.63
2022-10-18T17:06:27.559Z,20.65
2022-10-18T17:08:56.450Z,20.47
2022-10-18T17:11:26.814Z,20.48
2022-10-18T17:13:55.801Z,20.43
2022-10-18T17:18:59.448Z,20.40
2022-10-18T17:21:30.732Z,20.42
2022-10-18T17:24:01.068Z,20.36
2022-10-18T17:26:30.304Z,20.24
2022-10-18T17:29:01.120Z,20.27
2022-10-18T17:31:30.103Z,20.23
2022-10-18T17:34:01.661Z,20.23
2022-10-18T17:36:33.928Z,20.10
2022-10-18T17:39:02.619Z,20.06
2022-10-18T17:41:30.995Z,19.96
2022-10-18T17:43:59.239Z,19.93
2022-10-18T17:46:27.438Z,19.98
2022-10-18T17:48:55.550Z,19.91
2022-10-18T17:51:24.339Z,19.90
2022-10-18T17:53:55.098Z,19.83
2022-10-18T17:56:23.227Z,19.97
2022-10-18T17:58:52.122Z,19.89
2022-10-18T18:01:23.046Z,19.79
2022-10-18T18:03:52.270Z,19.80
2022-10-18T18:06:23.546Z,19.74
2022-10-18T18:08:53.338Z,19.71
2022-10-18T18:11:21.828Z,19.72
2022-10-18T18:13:49.939Z,19.66
2022-10-18T18:16:20.545Z,19.68
2022-10-18T18:18:51.605Z,19.69
2022-10-18T18:21:20.607Z,19.69
2022-10-18T18:23:49.661Z,19.56
2022-10-18T18:26:20.597Z,19.69
2022-10-18T18:28:49.486Z,19.73
2022-10-18T18:31:19.534Z,19.62
2022-10-18T18:33:47.841Z,19.59
2022-10-18T18:36:18.054Z,19.55
2022-10-18T18:38:46.355Z,19.59
2022-10-18T18:41:16.396Z,19.59
2022-10-18T18:43:50.525Z,19.63
2022-10-18T18:46:19.330Z,19.50
2022-10-18T18:48:47.886Z,19.59
2022-10-18T18:51:18.091Z,19.48
2022-10-18T18:53:47.757Z,19.44
2022-10-18T18:56:18.392Z,19.51
2022-10-18T18:58:48.752Z,19.47
2022-10-18T19:01:19.552Z,19.38
2022-10-18T19:03:49.991Z,19.36
2022-10-18T19:06:20.443Z,19.40
2022-10-18T19:08:49.629Z,19.42
2022-10-18T19:11:20.798Z,19.46
2022-10-18T19:13:51.549Z,19.49
2022-10-18T19:16:23.086Z,19.46
2022-10-18T19:18:53.190Z,19.26
2022-10-18T19:21:22.482Z,19.36
2022-10-18T19:23:51.313Z,19.45
2022-10-18T19:26:30.043Z,19.30
2022-10-18T19:29:07.388Z,19.20
2022-10-18T19:31:37.144Z,19.25
2022-10-18T19:34:07.660Z,19.29
2022-10-18T19:36:36.695Z,19.38
2022-10-18T19:39:06.123Z,19.39
2022-10-18T19:41:34.479Z,19.37
2022-10-18T19:44:04.264Z,19.34
2022-10-18T19:46:32.998Z,19.21
2022-10-18T19:49:01.539Z,19.22
2022-10-18T19:51:29.927Z,19.28
2022-10-18T19:53:58.664Z,19.30
2022-10-18T19:56:29.012Z,19.35
2022-10-18T19:58:58.318Z,19.25
2022-10-18T20:01:29.372Z,19.19
2022-10-18T20:03:57.707Z,19.21
2022-10-18T20:06:25.829Z,19.26
2022-10-18T20:08:54.652Z,19.30
2022-10-18T20:11:24.852Z,19.24
2022-10-18T20:13:54.029Z,19.30
2022-10-18T20:16:28.188Z,19.38
2022-10-18T20:19:00.427Z,19.19
2022-10-18T20:21:30.662Z,19.22
2022-10-18T20:23:59.505Z,19.10
2022-10-18T20:26:27.710Z,18.95
2022-10-18T20:28:58.233Z,18.92
2022-10-18T20:31:28.847Z,18.82
2022-10-18T20:34:00.436Z,18.90
2022-10-18T20:36:30.147Z,18.84
2022-10-18T20:38:58.714Z,18.90
2022-10-18T20:41:28.801Z,18.90
2022-10-18T20:43:59.896Z,18.88
2022-10-18T20:46:30.561Z,18.87
2022-10-18T20:49:00.615Z,18.89
2022-10-18T20:51:28.993Z,18.87
2022-10-18T20:53:57.904Z,18.79
2022-10-18T20:56:27.564Z,18.75
2022-10-18T20:58:58.147Z,18.70
2022-10-18T21:01:28.922Z,18.73
2022-10-18T21:04:01.487Z,18.62
2022-10-18T21:06:30.959Z,18.66
2022-10-18T21:09:01.178Z,18.64
2022-10-18T21:11:31.295Z,18.61
2022-10-18T21:14:02.721Z,18.67
2022-10-18T21:16:31.599Z,18.68
2022-10-18T21:19:04.510Z,18.59
2022-10-18T21:21:33.338Z,18.68
2022-10-18T21:24:05.314Z,18.67
2022-10-18T21:26:38.490Z,18.65
2022-10-18T21:29:07.350Z,18.68
2022-10-18T21:31:39.222Z,18.73
2022-10-18T21:34:13.269Z,18.65
2022-10-18T21:36:42.562Z,18.66
2022-10-18T21:39:14.864Z,18.68
2022-10-18T21:41:43.529Z,18.72
2022-10-18T21:44:12.141Z,18.73
2022-10-18T21:46:43.033Z,18.78
2022-10-18T21:49:12.691Z,18.83
2022-10-18T21:51:41.527Z,18.82
2022-10-18T21:54:14.045Z,18.76
2022-10-18T21:56:42.499Z,18.81
2022-10-18T21:59:12.895Z,18.81
2022-10-18T22:01:43.691Z,18.81
2022-10-18T22:04:21.471Z,18.78
2022-10-18T22:06:49.772Z,18.88
2022-10-18T22:09:18.263Z,18.79
2022-10-18T22:11:49.636Z,18.82
2022-10-18T22:14:18.029Z,18.76
2022-10-18T22:16:46.484Z,18.88
2022-10-18T22:19:15.191Z,18.86
2022-10-18T22:21:45.273Z,18.89
2022-10-18T22:24:13.758Z,18.84
2022-10-18T22:26:43.641Z,18.88
2022-10-18T22:29:15.266Z,18.90
2022-10-18T22:31:45.587Z,18.95
2022-10-18T22:34:17.139Z,18.90
2022-10-18T22:36:47.318Z,18.91
2022-10-18T22:39:16.898Z,18.95
2022-10-18T22:41:45.517Z,18.92
2022-10-18T22:44:15.176Z,18.76
2022-10-18T22:46:43.811Z,18.85
2022-10-18T22:49:12.676Z,18.81
2022-10-18T22:51:41.042Z,18.73
2022-10-18T22:54:11.037Z,18.77
2022-10-18T22:56:40.275Z,18.80
2022-10-18T22:59:09.137Z,18.83
2022-10-18T23:01:37.934Z,18.82
2022-10-18T23:04:06.402Z,18.81
2022-10-18T23:06:36.680Z,18.83
2022-10-18T23:09:07.566Z,18.73
2022-10-18T23:11:38.447Z,18.75
2022-10-18T23:14:08.507Z,18.83
2022-10-18T23:16:37.816Z,18.80
2022-10-18T23:19:06.397Z,18.72
2022-10-18T23:21:35.531Z,18.78
2022-10-18T23:24:04.020Z,18.82
2022-10-18T23:26:32.579Z,18.85
2022-10-18T23:29:02.883Z,18.81
2022-10-18T23:31:33.337Z,18.85
2022-10-18T23:34:03.584Z,18.76
2022-10-18T23:36:33.737Z,18.81
2022-10-18T23:39:02.130Z,18.87
2022-10-18T23:41:30.535Z,18.81
2022-10-18T23:43:59.267Z,18.92
2022-10-18T23:46:28.946Z,18.90
2022-10-18T23:48:57.172Z,18.91
2022-10-18T23:51:25.613Z,18.94
2022-10-18T23:53:53.874Z,18.98
2022-10-18T23:56:22.241Z,19.03
2022-10-18T23:58:50.577Z,18.93
